Time;durP1;ratioP1;P1;durP2;ratioP2;P2;SDS_P1;SDS_P2;PMS_P1;PMS_P2;Temp;Humidity;BMP_temperature;BMP_pressure;BME280_temperature;BME280_humidity;BME280_pressure;Samples;Min_cycle;Max_cycle;Signal;HPM_P1;HPM_P2
2022/07/28 00:00:56;;;;;;;8.63;5.10;;;;;;;-143.84;90.78;45056.69;5071472;28;20433;-73
2022/07/28 00:03:24;;;;;;;9.10;5.50;;;;;;;-143.84;90.31;45016.69;5071315;28;20429;-73
2022/07/28 00:05:51;;;;;;;13.83;5.80;;;;;;;-143.84;89.18;45035.75;5070967;28;20433;-73
2022/07/28 00:08:19;;;;;;;8.07;5.60;;;;;;;-143.84;89.35;45012.88;5070438;28;20498;-73
2022/07/28 00:10:47;;;;;;;11.60;5.57;;;;;;;-143.84;89.21;45007.19;5081963;28;20484;-73
2022/07/28 00:13:14;;;;;;;8.10;5.80;;;;;;;-143.84;89.70;45028.13;5091179;28;20505;-73
2022/07/28 00:15:41;;;;;;;5.73;5.23;;;;;;;-143.84;88.67;45030.03;5102593;28;20956;-74
2022/07/28 00:18:08;;;;;;;5.97;5.37;;;;;;;-143.84;87.73;45030.03;5111092;28;21060;-74
2022/07/28 00:20:35;;;;;;;8.53;5.47;;;;;;;-143.84;86.77;45005.28;5111148;28;20447;-74
2022/07/28 00:23:02;;;;;;;11.17;5.83;;;;;;;-143.84;85.94;45005.28;5111618;28;20463;-73
2022/07/28 00:25:31;;;;;;;5.40;5.00;;;;;;;-143.84;86.83;45010.97;5110995;28;20431;-73
2022/07/28 00:27:58;;;;;;;5.23;4.67;;;;;;;-143.84;87.38;45030.03;5111329;28;20451;-73
2022/07/28 00:30:25;;;;;;;5.00;4.60;;;;;;;-143.84;84.51;45012.88;5111201;28;20439;-73
2022/07/28 00:32:52;;;;;;;5.47;4.97;;;;;;;-143.84;86.00;45033.84;5111358;28;20423;-73
2022/07/28 00:35:19;;;;;;;11.60;5.00;;;;;;;-143.84;88.09;45022.41;5111354;28;20431;-73
2022/07/28 00:37:46;;;;;;;16.93;5.77;;;;;;;-143.84;89.58;45045.25;5111058;28;20482;-73
2022/07/28 00:40:13;;;;;;;11.73;5.37;;;;;;;-143.84;90.12;45041.44;5110917;28;20902;-73
2022/07/28 00:42:42;;;;;;;6.57;4.87;;;;;;;-143.84;90.05;45030.03;5111113;28;20455;-73
2022/07/28 00:45:10;;;;;;;6.20;5.60;;;;;;;-143.84;89.16;45050.97;5110872;28;20435;-73
2022/07/28 00:47:37;;;;;;;5.73;5.13;;;;;;;-143.84;91.04;45009.09;5111300;28;20529;-73
2022/07/28 00:50:05;;;;;;;5.50;5.07;;;;;;;-143.84;90.24;45001.47;5110873;28;20468;-73
2022/07/28 00:52:33;;;;;;;7.37;4.67;;;;;;;-143.84;89.48;45020.50;5111129;28;20435;-73
2022/07/28 00:55:03;;;;;;;7.37;4.77;;;;;;;-143.84;90.44;45035.75;5110939;28;20454;-73
2022/07/28 00:57:30;;;;;;;5.93;5.43;;;;;;;-143.84;90.45;45039.53;5110846;28;20483;-73
2022/07/28 00:59:59;;;;;;;9.70;4.60;;;;;;;-143.84;90.39;45024.31;5110487;28;21017;-73
2022/07/28 01:02:27;;;;;;;5.70;4.30;;;;;;;-143.84;90.35;45009.09;5110649;28;20439;-73
2022/07/28 01:04:54;;;;;;;4.70;4.40;;;;;;;-143.84;89.90;45033.84;5110509;28;20443;-73
2022/07/28 01:07:31;;;;;;;6.57;5.80;;;;;;;-143.84;89.82;45049.06;5110779;28;20435;-73
2022/07/28 01:10:06;;;;;;;6.67;5.60;;;;;;;-143.84;90.04;44995.75;5110361;28;20482;-73
2022/07/28 01:12:47;;;;;;;5.77;5.10;;;;;;;-143.84;89.96;45047.16;5110260;28;20427;-73
2022/07/28 01:15:23;;;;;;;5.30;4.90;;;;;;;-143.84;89.78;45022.41;5110285;28;21179;-73
2022/07/28 01:18:00;;;;;;;5.83;5.40;;;;;;;-143.84;90.06;45041.44;5110426;28;20486;-73
2022/07/28 01:20:34;;;;;;;5.60;5.20;;;;;;;-143.84;89.68;45014.78;5110248;28;20503;-73
2022/07/28 01:23:36;;;;;;;5.73;5.23;;;;;;;-143.84;88.49;45033.84;5110171;28;20431;-73
2022/07/28 01:26:19;;;;;;;6.43;5.70;;;;;;;-143.84;89.61;45022.41;5110274;28;20470;-73
2022/07/28 01:28:59;;;;;;;6.50;6.00;;;;;;;-143.84;89.16;45020.50;5110148;28;20451;-73
2022/07/28 01:31:35;;;;;;;4.90;4.70;;;;;;;-143.84;89.38;45014.78;5110396;28;20484;-73
2022/07/28 01:34:08;;;;;;;6.43;4.70;;;;;;;-143.84;89.24;45056.69;5109991;28;20799;-73
2022/07/28 01:36:42;;;;;;;10.73;5.73;;;;;;;-143.84;88.99;45050.97;5109343;28;20503;-73
2022/07/28 01:39:10;;;;;;;6.50;6.00;;;;;;;-143.84;87.93;45037.66;5110143;28;20466;-73
2022/07/28 01:41:39;;;;;;;6.13;5.63;;;;;;;-143.84;87.73;45047.16;5110536;28;20441;-73
2022/07/28 01:44:10;;;;;;;5.20;4.90;;;;;;;-143.84;88.86;45028.13;5109945;28;20520;-73
2022/07/28 01:46:39;;;;;;;6.30;5.90;;;;;;;-143.84;89.37;45016.69;5109894;28;20443;-73
2022/07/28 01:49:09;;;;;;;9.60;6.17;;;;;;;-143.84;89.81;45073.81;5109567;28;20458;-73
2022/07/28 01:51:38;;;;;;;7.27;6.63;;;;;;;-143.84;89.45;45018.59;5109164;28;20504;-73
2022/07/28 01:54:07;;;;;;;5.93;5.53;;;;;;;-143.84;89.50;45049.06;5109377;28;20446;-73
2022/07/28 01:56:34;;;;;;;9.37;5.67;;;;;;;-143.84;89.33;45071.91;5109522;28;20959;-73
2022/07/28 01:59:08;;;;;;;7.27;6.63;;;;;;;-143.84;88.67;45049.06;5109633;28;20438;-73
2022/07/28 02:01:37;;;;;;;8.47;6.67;;;;;;;-143.84;88.38;45024.31;5109630;28;20449;-73
2022/07/28 02:04:08;;;;;;;6.23;5.70;;;;;;;-143.84;89.09;45035.75;5109091;28;20447;-73
2022/07/28 02:06:37;;;;;;;8.33;6.30;;;;;;;-143.84;88.44;45049.06;5108863;28;20439;-73
2022/07/28 02:09:06;;;;;;;8.47;7.67;;;;;;;-143.84;88.36;45058.59;5109900;28;21003;-73
2022/07/28 02:11:43;;;;;;;7.03;6.53;;;;;;;-143.84;88.25;45045.25;5109137;28;21182;-73
2022/07/28 02:14:14;;;;;;;7.00;5.90;;;;;;;-143.84;88.30;45052.88;5109339;28;20450;-73
2022/07/28 02:16:44;;;;;;;8.73;7.20;;;;;;;-143.84;88.79;45031.94;5109214;28;20447;-73
2022/07/28 02:19:14;;;;;;;8.00;6.37;;;;;;;-143.84;88.53;45041.44;5109435;28;20435;-73
2022/07/28 02:21:42;;;;;;;6.87;5.90;;;;;;;-143.84;89.18;45047.16;5109411;28;20516;-73
2022/07/28 02:24:12;;;;;;;6.33;5.93;;;;;;;-143.84;89.04;45041.44;5109111;28;20447;-73
2022/07/28 02:26:46;;;;;;;6.80;6.10;;;;;;;-143.84;88.57;45049.06;5109267;28;20823;-74
2022/07/28 02:29:14;;;;;;;9.20;6.77;;;;;;;-143.84;87.75;45018.59;5109074;28;20443;-74
2022/07/28 02:31:49;;;;;;;8.10;6.57;;;;;;;-143.84;88.33;45049.06;5109599;28;20435;-73
2022/07/28 02:34:20;;;;;;;7.47;6.70;;;;;;;-143.84;86.82;45018.59;5109489;28;20891;-74
2022/07/28 02:36:53;;;;;;;12.10;7.60;;;;;;;-143.84;86.54;45001.47;5109137;28;20424;-73
2022/07/28 02:39:26;;;;;;;7.77;7.03;;;;;;;-143.84;86.08;45010.97;5109115;28;20456;-74
2022/07/28 02:41:59;;;;;;;6.80;6.20;;;;;;;-143.84;87.68;45037.66;5108904;28;20439;-73
2022/07/28 02:44:32;;;;;;;8.03;6.43;;;;;;;-143.84;88.89;45052.88;5109136;28;20503;-73
2022/07/28 02:47:00;;;;;;;7.33;6.70;;;;;;;-143.84;88.53;45041.44;5109251;28;20510;-74
2022/07/28 02:49:31;;;;;;;7.77;6.97;;;;;;;-143.84;87.88;45037.66;5113116;28;20439;-74
2022/07/28 02:52:00;;;;;;;9.43;8.47;;;;;;;-143.84;89.42;45056.69;5113239;28;20431;-73
2022/07/28 02:54:30;;;;;;;15.53;7.57;;;;;;;-143.84;89.30;45045.25;5113144;28;20449;-73
2022/07/28 02:56:59;;;;;;;9.27;8.07;;;;;;;-143.84;89.38;45037.66;5113089;28;20516;-73
2022/07/28 02:59:28;;;;;;;10.97;7.80;;;;;;;-143.84;89.20;45030.03;5113475;28;20512;-73
2022/07/28 03:01:55;;;;;;;9.93;7.70;;;;;;;-143.84;88.93;45037.66;5113289;28;20430;-73
2022/07/28 03:07:07;;;;;;;8.63;7.77;;;;;;;-143.84;88.84;45024.31;5111804;28;20450;-73
2022/07/28 03:09:39;;;;;;;13.10;8.60;;;;;;;-143.84;88.36;45056.69;5112268;28;20447;-73
2022/07/28 03:12:07;;;;;;;7.27;6.77;;;;;;;-143.84;88.81;45062.41;5113034;28;20427;-73
2022/07/28 03:14:34;;;;;;;8.47;7.70;;;;;;;-143.84;88.30;45030.03;5112716;28;20966;-74
2022/07/28 03:17:01;;;;;;;15.00;7.73;;;;;;;-143.84;86.46;45041.44;5093687;28;20439;-74
2022/07/28 03:19:28;;;;;;;8.83;8.13;;;;;;;-143.84;88.03;45030.03;5092363;28;20432;-74
2022/07/28 03:21:55;;;;;;;11.33;7.53;;;;;;;-143.84;89.76;45075.72;5092318;28;20506;-73
2022/07/28 03:24:27;;;;;;;12.77;9.00;;;;;;;-143.84;90.56;45064.31;5092292;28;20565;-73
2022/07/28 03:26:59;;;;;;;13.40;9.03;;;;;;;-143.84;89.01;45028.13;5092211;28;20999;-73
2022/07/28 03:29:29;;;;;;;11.30;9.03;;;;;;;-143.84;89.73;45022.41;5088966;28;20444;-73
2022/07/28 03:31:58;;;;;;;15.50;9.60;;;;;;;-143.84;87.85;45028.13;5091338;28;20443;-74
2022/07/28 03:34:26;;;;;;;9.00;7.97;;;;;;;-143.84;88.84;45007.19;5091704;28;20439;-73
2022/07/28 03:37:00;;;;;;;11.83;9.10;;;;;;;-143.84;89.85;45043.34;5091941;28;20500;-74
2022/07/28 03:39:31;;;;;;;12.07;9.20;;;;;;;-143.84;90.10;45043.34;5091800;28;20576;-73
2022/07/28 03:41:59;;;;;;;10.43;8.50;;;;;;;-143.84;89.41;45018.59;5091880;28;20481;-73
2022/07/28 03:44:27;;;;;;;8.60;7.90;;;;;;;-143.84;89.78;45047.16;5091745;28;20436;-73
2022/07/28 03:46:54;;;;;;;9.93;8.57;;;;;;;-143.84;89.61;45030.03;5092152;28;20879;-73
2022/07/28 03:49:22;;;;;;;12.53;8.87;;;;;;;-143.84;89.41;45049.06;5092115;28;20502;-73
2022/07/28 03:51:49;;;;;;;8.60;7.80;;;;;;;-143.84;88.16;45037.66;5091704;28;20491;-73
2022/07/28 03:54:16;;;;;;;11.10;7.70;;;;;;;-143.84;87.02;45001.47;5091627;28;20439;-73
2022/07/28 03:56:45;;;;;;;8.80;7.90;;;;;;;-143.84;85.22;45022.41;5091675;28;20961;-73
2022/07/28 03:59:12;;;;;;;12.13;8.33;;;;;;;-143.84;82.29;44995.75;5090846;28;20478;-73
2022/07/28 04:01:39;;;;;;;7.83;7.07;;;;;;;-143.84;82.11;45043.34;5091424;28;20752;-73
2022/07/28 04:04:06;;;;;;;7.33;6.63;;;;;;;-143.84;80.22;44999.56;5091621;28;20877;-73
2022/07/28 04:06:33;;;;;;;18.53;6.83;;;;;;;-143.84;79.05;45010.97;5091702;28;20831;-73
2022/07/28 04:09:01;;;;;;;7.47;6.30;;;;;;;-143.84;78.48;44963.38;5091336;28;20933;-73
2022/07/28 04:11:28;;;;;;;15.60;6.27;;;;;;;-143.84;77.26;44986.22;5090908;28;20485;-73
2022/07/28 04:13:57;;;;;;;8.97;5.60;;;;;;;-143.84;75.80;44995.75;5087032;28;20826;-73
2022/07/28 04:16:24;;;;;;;8.27;5.73;;;;;;;-143.84;76.52;44942.44;5070952;28;20445;-73
2022/07/28 04:18:51;;;;;;;5.77;5.33;;;;;;;-143.84;76.23;44961.47;5070834;28;20483;-73
2022/07/28 04:21:18;;;;;;;5.93;5.47;;;;;;;-143.84;75.28;44986.22;5070834;28;20441;-73
2022/07/28 04:23:46;;;;;;;5.73;5.20;;;;;;;-143.84;73.96;44955.75;5070500;28;20445;-73
2022/07/28 04:26:13;;;;;;;11.73;4.50;;;;;;;-143.84;73.03;44953.88;5078558;28;20505;-73
2022/07/28 04:28:40;;;;;;;4.10;3.80;;;;;;;-143.84;72.86;44965.28;5090126;28;20443;-73
2022/07/28 04:31:09;;;;;;;10.27;4.43;;;;;;;-143.84;72.37;44948.16;5090851;28;20440;-73
2022/07/28 04:33:36;;;;;;;14.07;4.10;;;;;;;-143.84;69.55;44944.34;5090924;28;20440;-73
2022/07/28 04:36:04;;;;;;;4.40;4.10;;;;;;;-143.84;69.97;44957.66;5091018;28;20439;-73
2022/07/28 04:38:31;;;;;;;3.87;3.43;;;;;;;-143.84;70.21;44957.66;5090850;28;20475;-73
2022/07/28 04:40:59;;;;;;;8.07;4.40;;;;;;;-143.84;70.06;44944.34;5090787;28;20523;-73
2022/07/28 04:43:26;;;;;;;4.50;3.27;;;;;;;-143.84;68.87;44927.19;5091007;28;20540;-73
2022/07/28 04:45:53;;;;;;;4.80;3.97;;;;;;;-143.84;68.54;44936.72;5090813;28;21001;-73
2022/07/28 04:48:22;;;;;;;4.33;3.43;;;;;;;-143.84;68.58;44942.44;5090814;28;20428;-73
2022/07/28 04:50:51;;;;;;;3.97;3.63;;;;;;;-143.84;68.02;44919.59;5090660;28;20424;-73
2022/07/28 04:53:18;;;;;;;6.83;3.47;;;;;;;-143.84;66.11;44917.69;5090552;28;20436;-74
2022/07/28 04:55:45;;;;;;;3.57;3.27;;;;;;;-143.84;66.13;44915.78;5090614;28;20456;-73
2022/07/28 04:58:12;;;;;;;5.83;2.93;;;;;;;-143.84;64.79;44921.50;5089788;28;20487;-74
2022/07/28 05:00:40;;;;;;;7.70;3.00;;;;;;;-143.84;65.02;44902.44;5089771;28;20435;-74
2022/07/28 05:03:07;;;;;;;4.83;3.70;;;;;;;-143.84;63.93;44934.81;5090170;28;20432;-73
2022/07/28 05:05:35;;;;;;;4.87;3.70;;;;;;;-143.84;64.40;44921.50;5089945;28;20432;-74
2022/07/28 05:08:02;;;;;;;4.37;3.93;;;;;;;-143.84;64.39;44921.50;5090095;28;20444;-74
2022/07/28 05:10:29;;;;;;;3.70;3.40;;;;;;;-143.84;63.79;44934.81;5089652;28;20480;-74
2022/07/28 05:12:57;;;;;;;3.13;2.93;;;;;;;-143.84;64.46;44951.97;5089445;28;20502;-74
2022/07/28 05:15:24;;;;;;;3.53;3.03;;;;;;;-143.84;63.49;44946.25;5106070;28;20439;-73
2022/07/28 05:17:51;;;;;;;3.10;2.80;;;;;;;-143.84;62.97;44923.41;5101391;28;20451;-73
2022/07/28 05:20:19;;;;;;;4.30;3.10;;;;;;;-143.84;61.78;44921.50;5089871;28;20432;-73
2022/07/28 05:22:49;;;;;;;5.30;3.30;;;;;;;-143.84;62.55;44921.50;5090011;28;20971;-73
2022/07/28 05:25:18;;;;;;;3.40;3.07;;;;;;;-143.84;62.04;44902.44;5090059;28;20519;-73
2022/07/28 05:27:46;;;;;;;3.80;3.50;;;;;;;-143.84;60.76;44927.19;5089964;28;20436;-73
2022/07/28 05:30:14;;;;;;;6.63;3.33;;;;;;;-143.84;58.27;44908.16;5089793;28;20436;-73
2022/07/28 05:32:42;;;;;;;4.53;2.93;;;;;;;-143.84;58.90;44906.25;5089774;28;20436;-73
2022/07/28 05:35:10;;;;;;;7.73;3.07;;;;;;;-143.84;57.93;44898.66;5089949;28;20432;-73
2022/07/28 05:37:38;;;;;;;5.63;2.90;;;;;;;-143.84;57.83;44889.13;5089948;28;20435;-73
2022/07/28 05:40:10;;;;;;;4.70;3.30;;;;;;;-143.84;57.98;44911.97;5089861;28;20519;-73
2022/07/28 05:42:38;;;;;;;6.80;3.60;;;;;;;-143.84;56.00;44900.53;5089568;28;20448;-73
2022/07/28 05:45:09;;;;;;;3.40;3.20;;;;;;;-143.84;55.30;44875.78;5089552;28;20440;-73
2022/07/28 05:47:47;;;;;;;7.53;2.87;;;;;;;-143.84;55.14;44892.94;5071776;28;21029;-73
2022/07/28 05:50:15;;;;;;;6.23;3.30;;;;;;;-143.84;54.58;44906.25;5089357;28;20446;-73
2022/07/28 05:52:43;;;;;;;3.53;3.23;;;;;;;-143.84;54.68;44892.94;5089460;28;20531;-73
2022/07/28 05:55:12;;;;;;;5.73;3.73;;;;;;;-143.84;54.98;44892.94;5089341;28;20444;-73
2022/07/28 05:57:39;;;;;;;3.80;3.50;;;;;;;-143.84;55.39;44871.97;5089541;28;20451;-73
2022/07/28 06:00:09;;;;;;;3.10;2.90;;;;;;;-143.84;54.32;44870.09;5089459;28;20513;-73
2022/07/28 06:02:37;;;;;;;3.70;3.40;;;;;;;-143.84;54.51;44879.59;5089258;28;20451;-73
2022/07/28 06:05:05;;;;;;;3.67;3.30;;;;;;;-143.84;53.46;44866.28;5089090;28;20440;-73
2022/07/28 06:07:32;;;;;;;6.57;2.73;;;;;;;-143.84;52.95;44887.22;5089201;28;20451;-73
2022/07/28 06:09:59;;;;;;;4.10;3.50;;;;;;;-143.84;53.04;44904.34;5088635;28;20483;-73
2022/07/28 06:12:28;;;;;;;3.40;3.10;;;;;;;-143.84;53.58;44854.84;5089017;28;20501;-73
2022/07/28 06:14:55;;;;;;;10.80;3.30;;;;;;;-143.84;52.76;44860.56;5101735;28;20798;-73
2022/07/28 06:17:22;;;;;;;4.00;2.80;;;;;;;-143.84;53.69;44887.22;5109270;28;20973;-73
2022/07/28 06:19:49;;;;;;;9.30;3.20;;;;;;;-143.84;53.74;44891.03;5109298;28;20532;-73
2022/07/28 06:22:16;;;;;;;6.83;2.33;;;;;;;-143.84;52.89;44873.88;5109118;28;20435;-73
2022/07/28 06:24:43;;;;;;;3.40;2.97;;;;;;;-143.84;53.71;44892.94;5108968;28;20439;-73
2022/07/28 06:27:11;;;;;;;3.20;2.90;;;;;;;-143.84;53.03;44911.97;5108722;28;20435;-73
2022/07/28 06:29:39;;;;;;;3.10;2.60;;;;;;;-143.84;52.58;44879.59;5109100;28;20565;-73
2022/07/28 06:32:06;;;;;;;2.63;2.33;;;;;;;-143.84;50.57;44885.31;5109088;28;20515;-73
2022/07/28 06:34:33;;;;;;;5.07;2.73;;;;;;;-143.84;51.00;44871.97;5109322;28;20480;-73
2022/07/28 06:37:01;;;;;;;6.77;2.50;;;;;;;-143.84;50.87;44894.84;5109128;28;20936;-73
2022/07/28 06:39:28;;;;;;;4.70;3.10;;;;;;;-143.84;52.27;44873.88;5108752;28;20466;-73
2022/07/28 06:41:55;;;;;;;6.87;2.40;;;;;;;-143.84;52.27;44887.22;5108985;28;20435;-73
2022/07/28 06:44:22;;;;;;;3.50;3.20;;;;;;;-143.84;52.22;44908.16;5109248;28;20791;-73
2022/07/28 06:46:51;;;;;;;4.67;2.87;;;;;;;-143.84;52.32;44870.09;5109215;28;20828;-73
2022/07/28 06:49:18;;;;;;;4.13;2.40;;;;;;;-143.84;51.44;44887.22;5109006;28;20477;-73
2022/07/28 06:51:45;;;;;;;3.93;2.87;;;;;;;-143.84;50.16;44877.69;5108987;28;20442;-73
2022/07/28 06:54:12;;;;;;;3.97;2.20;;;;;;;-143.84;47.70;44879.59;5108837;28;20443;-73
2022/07/28 06:56:39;;;;;;;3.13;2.90;;;;;;;-143.84;48.06;44906.25;5108813;28;20446;-73
2022/07/28 06:59:06;;;;;;;7.60;2.70;;;;;;;-143.84;46.69;44887.22;5108238;28;20527;-73
2022/07/28 07:01:33;;;;;;;3.00;2.30;;;;;;;-143.84;47.56;44864.38;5108818;28;20446;-73
2022/07/28 07:04:02;;;;;;;3.70;2.70;;;;;;;-143.84;46.92;44866.28;5108944;28;20431;-73
2022/07/28 07:06:29;;;;;;;8.80;3.40;;;;;;;-143.84;47.50;44873.88;5109139;28;20508;-77
2022/07/28 07:08:56;;;;;;;4.47;2.80;;;;;;;-143.84;45.89;44843.44;5108925;28;20431;-73
2022/07/28 07:11:23;;;;;;;4.70;2.80;;;;;;;-143.84;46.38;44862.47;5091825;28;20516;-73
2022/07/28 07:13:51;;;;;;;8.40;3.50;;;;;;;-143.84;46.25;44879.59;5087528;28;20529;-75
2022/07/28 07:16:18;;;;;;;10.83;9.27;;;;;;;-143.84;46.04;44835.81;5088203;28;20458;-75
2022/07/28 07:18:47;;;;;;;26.60;17.60;;;;;;;-143.84;45.86;44807.25;5087834;28;21018;-76
2022/07/28 07:21:15;;;;;;;11.97;10.77;;;;;;;-143.84;45.74;44873.88;5084586;28;20981;-75
2022/07/28 07:23:42;;;;;;;6.37;3.97;;;;;;;-143.84;46.34;44851.03;5088253;28;20442;-77
2022/07/28 07:26:10;;;;;;;7.03;4.83;;;;;;;-143.84;44.95;44864.38;5088083;28;21024;-76
2022/07/28 07:28:37;;;;;;;7.07;6.40;;;;;;;-143.84;44.76;44866.28;5086956;28;20463;-76
2022/07/28 07:31:05;;;;;;;3.07;2.77;;;;;;;-143.84;45.66;44854.84;5087319;28;20538;-74
2022/07/28 07:33:32;;;;;;;5.80;2.83;;;;;;;-143.84;46.42;44851.03;5087664;28;20456;-74
2022/07/28 07:35:59;;;;;;;3.10;2.63;;;;;;;-143.84;46.72;44870.09;5090405;28;20455;-74
2022/07/28 07:38:28;;;;;;;2.87;2.67;;;;;;;-143.84;45.92;44845.31;5091435;28;20452;-74
2022/07/28 07:40:55;;;;;;;3.87;2.80;;;;;;;-143.84;45.39;44843.44;5091271;28;20451;-74
2022/07/28 07:43:22;;;;;;;4.00;2.87;;;;;;;-143.84;46.46;44858.66;5091402;28;20443;-74
2022/07/28 07:45:49;;;;;;;5.73;3.13;;;;;;;-143.84;46.52;44860.56;5090990;28;20456;-73
2022/07/28 07:48:17;;;;;;;6.47;2.97;;;;;;;-143.84;46.66;44835.81;5091126;28;20470;-73
2022/07/28 07:50:44;;;;;;;6.10;3.17;;;;;;;-143.84;46.13;44847.22;5090582;28;20463;-74
2022/07/28 07:53:11;;;;;;;5.47;2.93;;;;;;;-143.84;44.84;44841.53;5091091;28;20447;-74
2022/07/28 07:55:40;;;;;;;3.50;2.50;;;;;;;-143.84;45.02;44864.38;5088318;28;20447;-74
2022/07/28 07:58:07;;;;;;;8.20;3.10;;;;;;;-143.84;45.01;44873.88;5090634;28;20454;-74
2022/07/28 08:00:35;;;;;;;3.40;2.90;;;;;;;-143.84;44.43;44856.75;5090438;28;20487;-74
2022/07/28 08:03:02;;;;;;;4.07;3.57;;;;;;;-143.84;43.45;44852.94;5090915;28;20793;-74
2022/07/28 08:05:29;;;;;;;11.37;6.00;;;;;;;-143.84;44.21;44862.47;5091426;28;20462;-76
2022/07/28 08:07:56;;;;;;;16.80;12.23;;;;;;;-143.84;44.61;44864.38;5090776;28;20807;-76
2022/07/28 08:10:23;;;;;;;10.00;7.83;;;;;;;-143.84;42.43;44828.19;5085433;28;20475;-77
2022/07/28 08:12:52;;;;;;;3.00;2.77;;;;;;;-143.84;43.78;44847.22;5079809;28;20985;-74
2022/07/28 08:15:19;;;;;;;8.30;3.50;;;;;;;-143.84;43.83;44832.00;5084049;28;20440;-75
2022/07/28 08:17:46;;;;;;;3.17;2.97;;;;;;;-143.84;43.98;44858.66;5087807;28;20447;-74
2022/07/28 08:20:13;;;;;;;4.70;3.20;;;;;;;-143.84;43.30;44828.19;5087500;28;20494;-74
2022/07/28 08:22:48;;;;;;;3.70;3.43;;;;;;;-143.84;42.65;44870.09;5087506;28;20580;-74
2022/07/28 08:25:15;;;;;;;7.33;2.97;;;;;;;-143.84;43.36;44852.94;5088716;28;20455;-74
2022/07/28 08:27:42;;;;;;;2.93;2.63;;;;;;;-143.84;45.38;44845.31;5070172;28;20429;-74
2022/07/28 08:30:13;;;;;;;3.27;2.90;;;;;;;-143.84;44.59;44854.84;5066315;28;20506;-74
2022/07/28 08:32:41;;;;;;;4.13;2.83;;;;;;;-143.84;44.77;44868.19;5070316;28;20449;-74
2022/07/28 08:35:09;;;;;;;6.23;2.90;;;;;;;-143.84;42.39;44837.72;5085079;28;20451;-75
2022/07/28 08:37:38;;;;;;;4.53;3.90;;;;;;;-143.84;42.83;44805.34;5071260;28;20444;-74
2022/07/28 08:40:13;;;;;;;3.00;2.70;;;;;;;-143.84;42.52;44852.94;5071359;28;21039;-73
2022/07/28 08:42:49;;;;;;;5.73;2.90;;;;;;;-143.84;41.62;44826.28;5073844;28;20452;-73
2022/07/28 08:45:19;;;;;;;2.93;2.73;;;;;;;-143.84;41.89;44845.31;5077661;28;21033;-75
2022/07/28 08:47:47;;;;;;;3.27;2.83;;;;;;;-143.84;42.18;44845.31;5080436;28;20962;-74
2022/07/28 08:50:14;;;;;;;3.23;2.80;;;;;;;-143.84;41.65;44822.47;5075189;28;20448;-73
2022/07/28 08:52:46;;;;;;;3.20;2.90;;;;;;;-143.84;41.42;44862.47;5075111;28;20470;-74
2022/07/28 08:55:15;;;;;;;3.10;2.80;;;;;;;-143.84;41.83;44805.34;5082293;28;20449;-75
2022/07/28 08:57:42;;;;;;;3.43;2.80;;;;;;;-143.84;43.04;44862.47;5077267;28;20443;-75
2022/07/28 09:00:10;;;;;;;7.90;6.37;;;;;;;-143.84;43.22;44849.13;5076056;28;20491;-77
2022/07/28 09:02:43;;;;;;;10.80;9.67;;;;;;;-143.84;42.27;44864.38;5076091;28;20452;-77
2022/07/28 09:05:11;;;;;;;12.87;11.60;;;;;;;-143.84;42.45;44847.22;5075576;28;20518;-78
2022/07/28 09:07:41;;;;;;;2.80;2.70;;;;;;;-143.84;40.51;44849.13;5078445;28;20433;-73
2022/07/28 09:10:10;;;;;;;4.90;3.00;;;;;;;-143.84;40.49;44870.09;5080202;28;20506;-77
2022/07/28 09:12:38;;;;;;;9.17;3.40;;;;;;;-143.84;40.54;44828.19;5089643;28;20448;-70
2022/07/28 09:15:07;;;;;;;7.20;2.60;;;;;;;-143.84;42.36;44830.09;5090149;28;20527;-74
2022/07/28 09:17:34;;;;;;;6.37;2.83;;;;;;;-143.84;40.52;44828.19;5088860;28;20462;-74
2022/07/28 09:20:05;;;;;;;3.33;2.70;;;;;;;-143.84;39.83;44851.03;5089782;28;20487;-73
2022/07/28 09:22:33;;;;;;;2.40;2.30;;;;;;;-143.84;40.88;44856.75;5089446;28;20492;-74
2022/07/28 09:25:02;;;;;;;9.00;6.73;;;;;;;-143.84;40.47;44845.31;5089180;28;20456;-77
2022/07/28 09:27:43;;;;;;;8.13;7.37;;;;;;;-143.84;41.56;44837.72;5088620;28;20517;-75
2022/07/28 09:30:11;;;;;;;7.40;3.20;;;;;;;-143.84;42.39;44862.47;5084586;28;20535;-75
2022/07/28 09:32:39;;;;;;;3.03;2.83;;;;;;;-143.84;42.59;44862.47;5085744;28;20513;-75
2022/07/28 09:35:18;;;;;;;4.70;2.93;;;;;;;-143.84;42.02;44852.94;5088562;28;20447;-75
2022/07/28 09:37:45;;;;;;;4.10;3.07;;;;;;;-143.84;42.31;44845.31;5085925;28;20451;-75
2022/07/28 09:40:14;;;;;;;4.33;2.77;;;;;;;-143.84;40.91;44852.94;5088855;28;20487;-75
2022/07/28 09:42:46;;;;;;;5.03;2.80;;;;;;;-143.84;42.34;44845.31;5087204;28;20459;-75
2022/07/28 09:45:13;;;;;;;3.00;2.80;;;;;;;-143.84;43.08;44856.75;5085606;28;20949;-75
2022/07/28 09:47:41;;;;;;;5.40;2.67;;;;;;;-143.84;43.87;44866.28;5088793;28;20521;-75
2022/07/28 09:50:20;;;;;;;3.77;2.90;;;;;;;-143.84;41.90;44868.19;5089028;28;21222;-75
2022/07/28 09:52:47;;;;;;;4.33;2.90;;;;;;;-143.84;42.24;44885.31;5087541;28;20531;-75
2022/07/28 09:55:15;;;;;;;5.47;2.50;;;;;;;-143.84;40.17;44856.75;5085406;28;20455;-75
2022/07/28 09:57:42;;;;;;;3.10;2.90;;;;;;;-143.84;39.12;44828.19;5088270;28;20958;-75
2022/07/28 10:00:11;;;;;;;5.10;3.27;;;;;;;-143.84;41.34;44875.78;5087795;28;20480;-75
2022/07/28 10:02:39;;;;;;;4.33;2.73;;;;;;;-143.84;42.45;44826.28;5088575;28;20452;-75
2022/07/28 10:05:07;;;;;;;4.47;2.90;;;;;;;-143.84;42.00;44852.94;5088765;28;20530;-75
2022/07/28 10:07:49;;;;;;;4.10;2.90;;;;;;;-143.84;42.18;44864.38;5088421;28;21531;-75
2022/07/28 10:10:21;;;;;;;10.17;3.67;;;;;;;-143.84;42.43;44851.03;5086045;28;20503;-75
2022/07/28 10:12:48;;;;;;;2.50;2.40;;;;;;;-143.84;42.43;44841.53;5081514;28;20541;-75
2022/07/28 10:17:57;;;;;;;4.07;3.07;;;;;;;-143.84;40.98;44833.91;5073324;28;20514;-75
2022/07/28 10:20:26;;;;;;;12.10;2.97;;;;;;;-143.84;40.74;44854.84;5079704;28;20984;-75
2022/07/28 10:23:01;;;;;;;2.97;2.77;;;;;;;-143.84;39.52;44849.13;5076572;28;20444;-74
2022/07/28 10:25:31;;;;;;;3.70;2.60;;;;;;;-143.84;41.58;44864.38;5075876;28;20452;-74
2022/07/28 10:28:00;;;;;;;29.67;6.80;;;;;;;-143.84;38.73;44868.19;5074776;28;20977;-75
2022/07/28 10:30:30;;;;;;;4.33;3.10;;;;;;;-143.84;40.51;44883.41;5080340;28;20447;-75
2022/07/28 10:32:59;;;;;;;3.90;2.87;;;;;;;-143.84;42.54;44852.94;5075076;28;20509;-75
2022/07/28 10:35:27;;;;;;;3.17;2.87;;;;;;;-143.84;40.51;44866.28;5079685;28;20444;-74
2022/07/28 10:38:00;;;;;;;8.47;5.70;;;;;;;-143.84;42.23;44862.47;5076896;28;20452;-73
2022/07/28 10:40:29;;;;;;;5.87;3.50;;;;;;;-143.84;41.78;44873.88;5075355;28;20475;-73
2022/07/28 10:42:57;;;;;;;13.37;3.33;;;;;;;-143.84;40.88;44860.56;5081449;28;20431;-72
2022/07/28 10:45:25;;;;;;;3.30;3.00;;;;;;;-143.84;39.78;44871.97;5074745;28;20958;-72
2022/07/28 10:47:53;;;;;;;3.20;2.90;;;;;;;-143.84;41.40;44868.19;5081350;28;20497;-71
2022/07/28 10:50:21;;;;;;;3.13;2.77;;;;;;;-143.84;41.84;44877.69;5081662;28;20448;-72
2022/07/28 10:52:50;;;;;;;2.57;2.37;;;;;;;-143.84;40.02;44852.94;5072263;28;20531;-72
2022/07/28 10:55:28;;;;;;;5.57;2.70;;;;;;;-143.84;41.38;44875.78;5075610;28;20516;-72
2022/07/28 10:58:00;;;;;;;3.00;2.63;;;;;;;-143.84;40.83;44852.94;5070392;28;20531;-72
2022/07/28 11:00:28;;;;;;;9.03;2.80;;;;;;;-143.84;41.08;44854.84;5080958;28;20483;-72
2022/07/28 11:02:58;;;;;;;3.20;2.90;;;;;;;-143.84;41.31;44871.97;5071527;28;20460;-72
2022/07/28 11:05:30;;;;;;;4.07;3.23;;;;;;;-143.84;40.84;44854.84;5077621;28;20541;-72
2022/07/28 11:07:59;;;;;;;3.00;2.70;;;;;;;-143.84;39.35;44873.88;5073246;28;20452;-72
2022/07/28 11:10:30;;;;;;;6.77;2.80;;;;;;;-143.84;40.02;44868.19;5080292;28;20475;-73
2022/07/28 11:12:59;;;;;;;2.60;2.40;;;;;;;-143.84;39.98;44847.22;5091574;28;20953;-71
2022/07/28 11:15:34;;;;;;;7.63;2.63;;;;;;;-143.84;39.66;44851.03;5092350;28;20513;-68
2022/07/28 11:18:05;;;;;;;6.43;3.17;;;;;;;-143.84;40.10;44866.28;5088926;28;20519;-68
2022/07/28 11:21:07;;;;;;;2.70;2.50;;;;;;;-143.84;38.30;44871.97;5091587;28;20931;-68
2022/07/28 11:23:54;;;;;;;3.20;3.00;;;;;;;-143.84;40.48;44868.19;5089013;28;20463;-68
2022/07/28 11:26:36;;;;;;;8.73;2.70;;;;;;;-143.84;38.90;44864.38;5090873;28;20447;-68
2022/07/28 11:29:22;;;;;;;3.03;2.67;;;;;;;-143.84;40.07;44851.03;5091206;28;20469;-68
2022/07/28 11:32:01;;;;;;;3.70;2.80;;;;;;;-143.84;40.91;44877.69;5091355;28;20446;-68